Keesler Air Force Base
KBIX : now visible

Airfield :











YOU CAN JOIN US ON...

 
LOGIN :

Register | Disclaimer

   EN    FR    IT 

 









Legend :    VFR   Marginal VFR   IFR   Intensive IFR   Very Intensive IFR
Visi :
Ceiling :
>= 8 km
>= 3000ft
5 to 8 km
1000 to 3000 ft
1500m to 5 km
500 to 1000 ft
800 to 1500m
200 to 500 ft
< 800m
< 200 ft
Symbols :   Thunderstorms  Fog  Heavy snow  Heavy precipitations  Wind > 20 kt







- Airport Elevation : 33 ft


KBIX - Keesler Air Force Base

CURRENT METAR :
  • 181056Z AUTO 00000KT 10SM CLR 26/25 A3007 RMK AO2 SLP185 T02600247

EXPIRED METARs :
  • 180956Z AUTO 00000KT 10SM CLR 27/25 A3007 RMK AO2 SLP185 T02650252 $
  • 180856Z AUTO 00000KT 10SM CLR 27/25 A3006 RMK AO2 SLP182 T02670251 57005 $

TAF TAF KBIX
Valid from the 18 at 10:00 until the 19 at 16:00 UTC


181000Z 1810/1916 23006KT 9999 FEW015 QNH3003INS
BECMG 1820/1821 19010KT 9999 SCT035 QNH3000INS
BECMG 1902/1903 23006KT 9999 FEW015 QNH3002INS TX31/1821Z TN26/1812Z
KZHU FIR / North America



MET'MAP, your aeronautical weather chart ! - Copyright ORBIFLY December 2007 - Disclaimer

ORBIFLY MET'MAP TEAM :

Programming & Development : Alexandra Zaïnal
Concept & Development : Baudouin d'Aumeries
Co-Development & Prog : Marc-Olivier Méhu
Technical & hardware support : Manuel Goepfert

Contact : metmap@orbifly.com




SOURCES & CREDITS :

   NOAA       Earth
Advisory